Harrisburg International Airport
KMDT : rendu visible

Aérodrome :











RETROUVEZ-NOUS SUR...

 
LOGIN :

S'inscrire | Disclaimer

   EN    FR    IT 

 









Légende :    VFR   VFR Marginal   IFR   IFR Intensif   IFR Très Intensif
Visi : 
Plafond : 
>= 8 km
>= 3000ft
5 à 8 km
1000 à 3000 ft
1500m à 5 km
500 à 1000 ft
800 à 1500m
200 à 500 ft
< 800m
< 200 ft
Symboles :   Orages  Brouillard  Fortes neiges  Fortes précipitations  Vent > 20 kt






- Altitude de l'aérodrome : 310 ft
- Code IATA : MDT


KMDT - Harrisburg International

DERNIER METAR :
  • 080956Z 32003KT 10SM SCT110 BKN250 14/11 A2952 RMK AO2 SLP996 T01390111 $

METARs EXPIRÉS :
  • 080856Z VRB05KT 10SM SCT080 BKN110 OVC250 14/12 A2949 RMK AO2 RAE28 SLP987 P0004 60052 T01390117 58022 $
  • 080756Z 28012KT 4SM +RA BR FEW025 BKN060 OVC075 14/12 A2958 RMK AO2 TSE46 SLP016 TS MOVD SE P0048 T01440122 $
  • 080749Z 29013KT 3SM +RA BR FEW025 BKN060 OVC075 14/12 A2959 RMK AO2 TSE46 TS MOVD SE P0044 T01390122 $
  • 080722Z 29010KT 3SM R13/5000VP6000FT +TSRA SCT016 BKN026CB OVC075 14/13 A2961 RMK AO2 FRQ LTGICCC E-SW TS E-SW MOV SE P0032 T01390128 $
  • 080710Z 31016KT 2 1/2SM R13/6000VP6000FT +TSRA SCT021 BKN039 OVC085 14/12 A2962 RMK AO2 PRESRR WSHFT 0652 FROPA FRQ LTGICCC OHD AND ALQDS TS OHD AND ALQDS MOV SE P0004 T01440122

TAF KMDT
Valide du 08 à 09h jusqu'au 09 à 06h UTC


080842Z 0809/0906 28011KT 5SM -RA BR OVC070
FM080900 28009KT P6SM BKN070
FM081300 30011KT P6SM BKN035
FM081700 30013G20KT P6SM BKN045
FM082100 30011G20KT P6SM SCT050
FM090000 30007KT P6SM SKC



MET'MAP, la Météo Aéronautique d'un coup d'oeil ! - Copyright ORBIFLY Décembre 2007 - Disclaimer

ORBIFLY MET'MAP TEAM :

Programmation & Développement : Alexandra Zaïnal
Sur une idée originale de : Baudouin d'Aumeries
Assistance à la programmation : Marc-Olivier Méhu
Soutien technique & logistique : Manuel Goepfert

Contact : metmap@orbifly.com




SOURCES & CREDITS :

   NOAA       Earth
Advisory